sensor_id;sensor_type;location;lat;lon;timestamp;P1;durP1;ratioP1;P2;durP2;ratioP2
50012;SDS011;35901;48.694;9.476;2024-02-15T00:02:03;5.80;;;5.30;;
50012;SDS011;35901;48.694;9.476;2024-02-15T00:04:29;7.10;;;5.67;;
50012;SDS011;35901;48.694;9.476;2024-02-15T00:06:56;5.93;;;4.97;;
50012;SDS011;35901;48.694;9.476;2024-02-15T00:09:22;9.13;;;6.60;;
50012;SDS011;35901;48.694;9.476;2024-02-15T00:11:48;6.60;;;6.00;;
50012;SDS011;35901;48.694;9.476;2024-02-15T00:14:13;7.30;;;6.53;;
50012;SDS011;35901;48.694;9.476;2024-02-15T00:16:39;8.53;;;7.70;;
50012;SDS011;35901;48.694;9.476;2024-02-15T00:19:06;8.40;;;7.57;;
50012;SDS011;35901;48.694;9.476;2024-02-15T00:21:32;8.63;;;7.20;;
50012;SDS011;35901;48.694;9.476;2024-02-15T00:23:58;9.07;;;6.73;;
50012;SDS011;35901;48.694;9.476;2024-02-15T00:26:25;7.23;;;6.53;;
50012;SDS011;35901;48.694;9.476;2024-02-15T00:28:51;7.10;;;6.30;;
50012;SDS011;35901;48.694;9.476;2024-02-15T00:31:17;6.23;;;5.63;;
50012;SDS011;35901;48.694;9.476;2024-02-15T00:33:43;7.40;;;6.70;;
50012;SDS011;35901;48.694;9.476;2024-02-15T00:36:10;6.17;;;5.57;;
50012;SDS011;35901;48.694;9.476;2024-02-15T00:38:36;6.77;;;6.07;;
50012;SDS011;35901;48.694;9.476;2024-02-15T00:41:02;6.40;;;5.90;;
50012;SDS011;35901;48.694;9.476;2024-02-15T00:43:27;7.13;;;6.43;;
50012;SDS011;35901;48.694;9.476;2024-02-15T00:45:54;8.30;;;7.00;;
50012;SDS011;35901;48.694;9.476;2024-02-15T00:48:19;7.30;;;6.60;;
50012;SDS011;35901;48.694;9.476;2024-02-15T00:50:45;7.23;;;6.60;;
50012;SDS011;35901;48.694;9.476;2024-02-15T00:53:11;7.27;;;6.40;;
50012;SDS011;35901;48.694;9.476;2024-02-15T00:55:37;8.63;;;6.53;;
50012;SDS011;35901;48.694;9.476;2024-02-15T00:58:02;8.53;;;6.83;;
50012;SDS011;35901;48.694;9.476;2024-02-15T01:00:28;7.73;;;6.90;;
50012;SDS011;35901;48.694;9.476;2024-02-15T01:02:55;8.03;;;7.23;;
50012;SDS011;35901;48.694;9.476;2024-02-15T01:05:21;8.90;;;6.57;;
50012;SDS011;35901;48.694;9.476;2024-02-15T01:07:47;9.03;;;6.60;;
50012;SDS011;35901;48.694;9.476;2024-02-15T01:10:15;6.57;;;5.97;;
50012;SDS011;35901;48.694;9.476;2024-02-15T01:12:42;7.00;;;6.30;;
50012;SDS011;35901;48.694;9.476;2024-02-15T01:15:09;9.07;;;6.10;;
50012;SDS011;35901;48.694;9.476;2024-02-15T01:17:35;9.30;;;6.73;;
50012;SDS011;35901;48.694;9.476;2024-02-15T01:20:00;7.67;;;6.60;;
50012;SDS011;35901;48.694;9.476;2024-02-15T01:22:26;6.90;;;6.20;;
50012;SDS011;35901;48.694;9.476;2024-02-15T01:24:52;6.20;;;5.33;;
50012;SDS011;35901;48.694;9.476;2024-02-15T01:27:18;6.93;;;5.60;;
50012;SDS011;35901;48.694;9.476;2024-02-15T01:29:44;7.20;;;6.50;;
50012;SDS011;35901;48.694;9.476;2024-02-15T01:32:10;7.17;;;6.43;;
50012;SDS011;35901;48.694;9.476;2024-02-15T01:34:36;6.53;;;5.83;;
50012;SDS011;35901;48.694;9.476;2024-02-15T01:37:02;6.77;;;6.00;;
50012;SDS011;35901;48.694;9.476;2024-02-15T01:39:28;7.47;;;5.70;;
50012;SDS011;35901;48.694;9.476;2024-02-15T01:41:54;6.83;;;6.13;;
50012;SDS011;35901;48.694;9.476;2024-02-15T01:44:21;6.10;;;5.50;;
50012;SDS011;35901;48.694;9.476;2024-02-15T01:46:49;9.23;;;7.30;;
50012;SDS011;35901;48.694;9.476;2024-02-15T01:49:18;7.90;;;6.70;;
50012;SDS011;35901;48.694;9.476;2024-02-15T01:51:47;6.47;;;5.87;;
50012;SDS011;35901;48.694;9.476;2024-02-15T01:54:14;7.93;;;6.80;;
50012;SDS011;35901;48.694;9.476;2024-02-15T01:56:43;7.17;;;6.47;;
50012;SDS011;35901;48.694;9.476;2024-02-15T01:59:10;8.93;;;6.60;;
50012;SDS011;35901;48.694;9.476;2024-02-15T02:01:38;6.73;;;6.13;;
50012;SDS011;35901;48.694;9.476;2024-02-15T02:04:04;7.57;;;6.23;;
50012;SDS011;35901;48.694;9.476;2024-02-15T02:06:30;6.93;;;6.23;;
50012;SDS011;35901;48.694;9.476;2024-02-15T02:08:56;7.47;;;6.77;;
50012;SDS011;35901;48.694;9.476;2024-02-15T02:11:23;9.17;;;7.27;;
50012;SDS011;35901;48.694;9.476;2024-02-15T02:13:49;11.17;;;8.07;;
50012;SDS011;35901;48.694;9.476;2024-02-15T02:16:29;9.87;;;8.80;;
50012;SDS011;35901;48.694;9.476;2024-02-15T02:19:00;9.27;;;8.37;;
50012;SDS011;35901;48.694;9.476;2024-02-15T02:21:27;11.63;;;9.43;;
50012;SDS011;35901;48.694;9.476;2024-02-15T02:23:55;12.77;;;9.90;;
50012;SDS011;35901;48.694;9.476;2024-02-15T02:26:22;8.33;;;7.57;;
50012;SDS011;35901;48.694;9.476;2024-02-15T02:28:48;11.50;;;8.80;;
50012;SDS011;35901;48.694;9.476;2024-02-15T02:31:14;9.53;;;8.60;;
50012;SDS011;35901;48.694;9.476;2024-02-15T02:33:46;10.20;;;9.10;;
50012;SDS011;35901;48.694;9.476;2024-02-15T02:36:14;11.03;;;9.80;;
50012;SDS011;35901;48.694;9.476;2024-02-15T02:38:40;10.73;;;9.63;;
50012;SDS011;35901;48.694;9.476;2024-02-15T02:41:06;13.50;;;10.17;;
50012;SDS011;35901;48.694;9.476;2024-02-15T02:43:32;12.20;;;10.90;;
50012;SDS011;35901;48.694;9.476;2024-02-15T02:45:58;12.40;;;11.20;;
50012;SDS011;35901;48.694;9.476;2024-02-15T02:48:23;13.60;;;12.00;;
50012;SDS011;35901;48.694;9.476;2024-02-15T02:50:49;13.57;;;12.10;;
50012;SDS011;35901;48.694;9.476;2024-02-15T02:53:15;14.70;;;12.63;;
50012;SDS011;35901;48.694;9.476;2024-02-15T02:55:41;13.03;;;11.43;;
50012;SDS011;35901;48.694;9.476;2024-02-15T02:58:07;10.33;;;9.40;;
50012;SDS011;35901;48.694;9.476;2024-02-15T03:00:33;14.33;;;10.70;;
50012;SDS011;35901;48.694;9.476;2024-02-15T03:02:59;12.27;;;11.07;;
50012;SDS011;35901;48.694;9.476;2024-02-15T03:05:26;11.83;;;10.63;;
50012;SDS011;35901;48.694;9.476;2024-02-15T03:07:52;12.37;;;11.00;;
50012;SDS011;35901;48.694;9.476;2024-02-15T03:10:18;13.37;;;11.97;;
50012;SDS011;35901;48.694;9.476;2024-02-15T03:12:44;13.80;;;12.23;;
50012;SDS011;35901;48.694;9.476;2024-02-15T03:15:14;12.77;;;11.37;;
50012;SDS011;35901;48.694;9.476;2024-02-15T03:17:41;11.87;;;10.67;;
50012;SDS011;35901;48.694;9.476;2024-02-15T03:20:08;12.37;;;10.63;;
50012;SDS011;35901;48.694;9.476;2024-02-15T03:25:24;13.27;;;11.70;;
50012;SDS011;35901;48.694;9.476;2024-02-15T03:27:54;13.57;;;12.27;;
50012;SDS011;35901;48.694;9.476;2024-02-15T03:30:21;10.30;;;9.30;;
50012;SDS011;35901;48.694;9.476;2024-02-15T03:32:49;10.97;;;9.93;;
50012;SDS011;35901;48.694;9.476;2024-02-15T03:35:18;12.93;;;11.63;;
50012;SDS011;35901;48.694;9.476;2024-02-15T03:37:45;12.23;;;10.83;;
50012;SDS011;35901;48.694;9.476;2024-02-15T03:40:11;14.53;;;12.30;;
50012;SDS011;35901;48.694;9.476;2024-02-15T03:42:37;14.77;;;13.27;;
50012;SDS011;35901;48.694;9.476;2024-02-15T03:45:06;17.47;;;14.77;;
50012;SDS011;35901;48.694;9.476;2024-02-15T03:47:33;15.07;;;12.50;;
50012;SDS011;35901;48.694;9.476;2024-02-15T03:50:01;11.97;;;10.87;;
50012;SDS011;35901;48.694;9.476;2024-02-15T03:52:27;10.10;;;9.10;;
50012;SDS011;35901;48.694;9.476;2024-02-15T03:54:55;13.43;;;11.23;;
50012;SDS011;35901;48.694;9.476;2024-02-15T03:57:25;8.83;;;8.03;;
50012;SDS011;35901;48.694;9.476;2024-02-15T03:59:51;10.83;;;9.73;;
50012;SDS011;35901;48.694;9.476;2024-02-15T04:02:22;11.00;;;9.90;;
50012;SDS011;35901;48.694;9.476;2024-02-15T04:04:57;9.80;;;8.80;;
50012;SDS011;35901;48.694;9.476;2024-02-15T04:07:23;11.00;;;9.77;;
50012;SDS011;35901;48.694;9.476;2024-02-15T04:09:54;12.10;;;10.90;;
50012;SDS011;35901;48.694;9.476;2024-02-15T04:12:20;12.60;;;11.30;;
50012;SDS011;35901;48.694;9.476;2024-02-15T04:14:46;15.63;;;13.10;;
50012;SDS011;35901;48.694;9.476;2024-02-15T04:17:13;12.10;;;10.80;;
50012;SDS011;35901;48.694;9.476;2024-02-15T04:19:39;14.10;;;12.70;;
50012;SDS011;35901;48.694;9.476;2024-02-15T04:22:05;12.63;;;11.13;;
50012;SDS011;35901;48.694;9.476;2024-02-15T04:24:33;14.80;;;12.50;;
50012;SDS011;35901;48.694;9.476;2024-02-15T04:26:59;13.77;;;11.63;;
50012;SDS011;35901;48.694;9.476;2024-02-15T04:29:25;12.60;;;10.40;;
50012;SDS011;35901;48.694;9.476;2024-02-15T04:31:51;12.43;;;10.87;;
50012;SDS011;35901;48.694;9.476;2024-02-15T04:34:19;10.70;;;9.63;;
50012;SDS011;35901;48.694;9.476;2024-02-15T04:36:45;11.70;;;10.50;;
50012;SDS011;35901;48.694;9.476;2024-02-15T04:39:15;28.73;;;9.77;;
50012;SDS011;35901;48.694;9.476;2024-02-15T04:41:52;11.43;;;10.23;;
50012;SDS011;35901;48.694;9.476;2024-02-15T04:44:18;11.80;;;10.63;;
50012;SDS011;35901;48.694;9.476;2024-02-15T04:46:52;13.10;;;11.53;;
50012;SDS011;35901;48.694;9.476;2024-02-15T04:49:18;27.43;;;10.17;;
50012;SDS011;35901;48.694;9.476;2024-02-15T04:51:44;48.73;;;13.13;;
50012;SDS011;35901;48.694;9.476;2024-02-15T04:54:10;40.33;;;13.07;;
50012;SDS011;35901;48.694;9.476;2024-02-15T04:56:39;14.37;;;11.30;;
50012;SDS011;35901;48.694;9.476;2024-02-15T04:59:05;15.30;;;10.83;;
50012;SDS011;35901;48.694;9.476;2024-02-15T05:01:34;15.90;;;12.97;;
50012;SDS011;35901;48.694;9.476;2024-02-15T05:04:00;12.00;;;10.80;;
50012;SDS011;35901;48.694;9.476;2024-02-15T05:06:31;14.33;;;12.83;;
50012;SDS011;35901;48.694;9.476;2024-02-15T05:08:57;14.70;;;12.10;;
50012;SDS011;35901;48.694;9.476;2024-02-15T05:11:25;10.53;;;9.50;;
50012;SDS011;35901;48.694;9.476;2024-02-15T05:13:51;16.17;;;13.37;;
50012;SDS011;35901;48.694;9.476;2024-02-15T05:16:17;20.37;;;14.13;;
50012;SDS011;35901;48.694;9.476;2024-02-15T05:18:43;13.87;;;11.90;;
50012;SDS011;35901;48.694;9.476;2024-02-15T05:21:10;22.93;;;15.67;;
50012;SDS011;35901;48.694;9.476;2024-02-15T05:23:37;14.67;;;12.17;;
50012;SDS011;35901;48.694;9.476;2024-02-15T05:26:07;17.77;;;14.87;;
50012;SDS011;35901;48.694;9.476;2024-02-15T05:28:33;16.40;;;14.70;;
50012;SDS011;35901;48.694;9.476;2024-02-15T05:33:41;15.17;;;13.33;;
50012;SDS011;35901;48.694;9.476;2024-02-15T05:36:10;16.03;;;14.33;;
50012;SDS011;35901;48.694;9.476;2024-02-15T05:38:36;15.40;;;13.30;;
50012;SDS011;35901;48.694;9.476;2024-02-15T05:41:02;13.93;;;12.23;;
50012;SDS011;35901;48.694;9.476;2024-02-15T05:43:28;16.90;;;13.33;;
50012;SDS011;35901;48.694;9.476;2024-02-15T05:45:54;13.47;;;11.93;;
50012;SDS011;35901;48.694;9.476;2024-02-15T05:48:20;17.40;;;13.73;;
50012;SDS011;35901;48.694;9.476;2024-02-15T05:50:46;11.17;;;9.97;;
50012;SDS011;35901;48.694;9.476;2024-02-15T05:53:12;11.37;;;10.27;;
50012;SDS011;35901;48.694;9.476;2024-02-15T05:55:38;13.33;;;12.00;;
50012;SDS011;35901;48.694;9.476;2024-02-15T05:58:09;19.37;;;16.60;;
50012;SDS011;35901;48.694;9.476;2024-02-15T06:00:36;25.37;;;20.10;;
50012;SDS011;35901;48.694;9.476;2024-02-15T06:03:04;25.77;;;20.47;;
50012;SDS011;35901;48.694;9.476;2024-02-15T06:05:31;24.50;;;20.23;;
50012;SDS011;35901;48.694;9.476;2024-02-15T06:07:57;26.17;;;20.77;;
50012;SDS011;35901;48.694;9.476;2024-02-15T06:10:24;26.03;;;19.27;;
50012;SDS011;35901;48.694;9.476;2024-02-15T06:12:50;22.10;;;18.00;;
50012;SDS011;35901;48.694;9.476;2024-02-15T06:15:16;17.97;;;15.67;;
50012;SDS011;35901;48.694;9.476;2024-02-15T06:17:46;20.73;;;17.20;;
50012;SDS011;35901;48.694;9.476;2024-02-15T06:20:12;15.00;;;13.43;;
50012;SDS011;35901;48.694;9.476;2024-02-15T06:22:39;21.37;;;17.33;;
50012;SDS011;35901;48.694;9.476;2024-02-15T06:25:05;18.70;;;15.93;;
50012;SDS011;35901;48.694;9.476;2024-02-15T06:27:31;21.53;;;17.77;;
50012;SDS011;35901;48.694;9.476;2024-02-15T06:29:57;17.87;;;15.93;;
50012;SDS011;35901;48.694;9.476;2024-02-15T06:32:42;22.80;;;18.20;;
50012;SDS011;35901;48.694;9.476;2024-02-15T06:35:27;19.63;;;16.90;;
50012;SDS011;35901;48.694;9.476;2024-02-15T06:38:11;19.97;;;17.33;;
50012;SDS011;35901;48.694;9.476;2024-02-15T06:40:55;22.10;;;16.33;;
50012;SDS011;35901;48.694;9.476;2024-02-15T06:43:21;20.10;;;16.77;;
50012;SDS011;35901;48.694;9.476;2024-02-15T06:45:47;23.57;;;18.30;;
50012;SDS011;35901;48.694;9.476;2024-02-15T06:48:16;18.67;;;16.27;;
50012;SDS011;35901;48.694;9.476;2024-02-15T06:50:41;25.73;;;19.83;;
50012;SDS011;35901;48.694;9.476;2024-02-15T06:53:07;24.33;;;19.13;;
50012;SDS011;35901;48.694;9.476;2024-02-15T06:55:33;22.77;;;19.07;;
50012;SDS011;35901;48.694;9.476;2024-02-15T06:58:01;23.80;;;19.43;;
50012;SDS011;35901;48.694;9.476;2024-02-15T07:00:27;16.27;;;14.50;;
50012;SDS011;35901;48.694;9.476;2024-02-15T07:02:55;21.43;;;19.00;;
50012;SDS011;35901;48.694;9.476;2024-02-15T07:05:21;24.30;;;19.87;;
50012;SDS011;35901;48.694;9.476;2024-02-15T07:07:48;35.17;;;17.77;;
50012;SDS011;35901;48.694;9.476;2024-02-15T07:10:15;80.97;;;16.73;;
50012;SDS011;35901;48.694;9.476;2024-02-15T07:12:42;69.10;;;18.20;;
50012;SDS011;35901;48.694;9.476;2024-02-15T07:15:09;16.43;;;14.67;;
50012;SDS011;35901;48.694;9.476;2024-02-15T07:17:35;17.07;;;15.27;;
50012;SDS011;35901;48.694;9.476;2024-02-15T07:20:02;14.30;;;12.80;;
50012;SDS011;35901;48.694;9.476;2024-02-15T07:22:32;15.10;;;13.53;;
50012;SDS011;35901;48.694;9.476;2024-02-15T07:24:57;14.47;;;12.97;;
50012;SDS011;35901;48.694;9.476;2024-02-15T07:27:23;12.63;;;11.43;;
50012;SDS011;35901;48.694;9.476;2024-02-15T07:29:51;11.20;;;10.00;;
50012;SDS011;35901;48.694;9.476;2024-02-15T07:32:17;10.73;;;9.70;;
50012;SDS011;35901;48.694;9.476;2024-02-15T07:34:43;9.87;;;8.50;;
50012;SDS011;35901;48.694;9.476;2024-02-15T07:37:13;8.07;;;7.37;;
50012;SDS011;35901;48.694;9.476;2024-02-15T07:39:41;8.37;;;7.57;;
50012;SDS011;35901;48.694;9.476;2024-02-15T07:42:06;15.70;;;12.27;;
50012;SDS011;35901;48.694;9.476;2024-02-15T07:44:34;8.63;;;7.80;;
50012;SDS011;35901;48.694;9.476;2024-02-15T07:47:01;10.67;;;8.33;;
50012;SDS011;35901;48.694;9.476;2024-02-15T07:49:29;6.80;;;6.10;;
50012;SDS011;35901;48.694;9.476;2024-02-15T07:51:56;6.33;;;5.73;;
50012;SDS011;35901;48.694;9.476;2024-02-15T07:54:23;6.03;;;5.10;;
50012;SDS011;35901;48.694;9.476;2024-02-15T07:56:49;6.53;;;5.93;;
50012;SDS011;35901;48.694;9.476;2024-02-15T07:59:15;6.00;;;5.40;;
50012;SDS011;35901;48.694;9.476;2024-02-15T08:01:50;6.53;;;5.60;;
50012;SDS011;35901;48.694;9.476;2024-02-15T08:04:16;7.70;;;6.30;;
50012;SDS011;35901;48.694;9.476;2024-02-15T08:06:44;7.43;;;6.67;;
50012;SDS011;35901;48.694;9.476;2024-02-15T08:09:09;7.67;;;5.90;;
50012;SDS011;35901;48.694;9.476;2024-02-15T08:11:40;6.10;;;5.30;;
50012;SDS011;35901;48.694;9.476;2024-02-15T08:14:05;6.20;;;5.53;;
50012;SDS011;35901;48.694;9.476;2024-02-15T08:16:35;5.60;;;5.10;;
50012;SDS011;35901;48.694;9.476;2024-02-15T08:19:01;5.13;;;4.63;;
50012;SDS011;35901;48.694;9.476;2024-02-15T08:21:29;5.33;;;4.73;;
50012;SDS011;35901;48.694;9.476;2024-02-15T08:24:01;6.00;;;5.27;;
50012;SDS011;35901;48.694;9.476;2024-02-15T08:26:38;5.67;;;5.10;;
50012;SDS011;35901;48.694;9.476;2024-02-15T08:29:05;5.67;;;5.17;;
50012;SDS011;35901;48.694;9.476;2024-02-15T08:31:34;5.53;;;4.97;;
50012;SDS011;35901;48.694;9.476;2024-02-15T08:34:01;6.43;;;4.80;;
50012;SDS011;35901;48.694;9.476;2024-02-15T08:36:27;4.43;;;4.03;;
50012;SDS011;35901;48.694;9.476;2024-02-15T08:38:52;4.67;;;4.10;;
50012;SDS011;35901;48.694;9.476;2024-02-15T08:41:19;4.40;;;4.10;;
50012;SDS011;35901;48.694;9.476;2024-02-15T08:43:46;4.30;;;3.90;;
50012;SDS011;35901;48.694;9.476;2024-02-15T08:46:13;4.30;;;4.00;;
50012;SDS011;35901;48.694;9.476;2024-02-15T08:48:39;4.90;;;4.27;;
50012;SDS011;35901;48.694;9.476;2024-02-15T08:51:05;5.00;;;4.40;;
50012;SDS011;35901;48.694;9.476;2024-02-15T08:53:34;4.80;;;4.40;;
50012;SDS011;35901;48.694;9.476;2024-02-15T08:56:02;4.30;;;4.00;;
50012;SDS011;35901;48.694;9.476;2024-02-15T08:58:29;4.77;;;3.73;;
50012;SDS011;35901;48.694;9.476;2024-02-15T09:00:57;4.97;;;3.67;;
50012;SDS011;35901;48.694;9.476;2024-02-15T09:03:23;3.67;;;3.37;;
50012;SDS011;35901;48.694;9.476;2024-02-15T09:05:50;4.07;;;3.53;;
50012;SDS011;35901;48.694;9.476;2024-02-15T09:08:16;3.80;;;2.97;;
50012;SDS011;35901;48.694;9.476;2024-02-15T09:10:46;3.50;;;2.90;;
50012;SDS011;35901;48.694;9.476;2024-02-15T09:13:12;3.63;;;3.33;;
50012;SDS011;35901;48.694;9.476;2024-02-15T09:15:38;3.67;;;3.20;;
50012;SDS011;35901;48.694;9.476;2024-02-15T09:18:06;3.93;;;3.03;;
50012;SDS011;35901;48.694;9.476;2024-02-15T09:20:34;2.93;;;2.60;;
50012;SDS011;35901;48.694;9.476;2024-02-15T09:23:02;6.47;;;4.20;;
50012;SDS011;35901;48.694;9.476;2024-02-15T09:25:34;6.40;;;4.17;;
50012;SDS011;35901;48.694;9.476;2024-02-15T09:28:03;4.97;;;4.03;;
50012;SDS011;35901;48.694;9.476;2024-02-15T09:30:29;5.17;;;3.70;;
50012;SDS011;35901;48.694;9.476;2024-02-15T09:32:56;4.07;;;3.30;;
50012;SDS011;35901;48.694;9.476;2024-02-15T09:35:22;4.43;;;3.43;;
50012;SDS011;35901;48.694;9.476;2024-02-15T09:37:48;4.17;;;3.03;;
50012;SDS011;35901;48.694;9.476;2024-02-15T09:40:14;3.80;;;3.27;;
50012;SDS011;35901;48.694;9.476;2024-02-15T09:42:42;4.00;;;3.30;;
50012;SDS011;35901;48.694;9.476;2024-02-15T09:45:10;3.43;;;3.13;;
50012;SDS011;35901;48.694;9.476;2024-02-15T09:47:41;3.70;;;3.37;;
50012;SDS011;35901;48.694;9.476;2024-02-15T09:50:07;4.10;;;3.37;;
50012;SDS011;35901;48.694;9.476;2024-02-15T09:55:12;4.47;;;3.20;;
50012;SDS011;35901;48.694;9.476;2024-02-15T09:57:41;3.57;;;3.27;;
50012;SDS011;35901;48.694;9.476;2024-02-15T10:00:08;3.30;;;2.97;;
50012;SDS011;35901;48.694;9.476;2024-02-15T10:02:39;3.70;;;3.20;;
50012;SDS011;35901;48.694;9.476;2024-02-15T10:05:05;4.20;;;3.00;;
50012;SDS011;35901;48.694;9.476;2024-02-15T10:07:37;3.40;;;2.97;;
50012;SDS011;35901;48.694;9.476;2024-02-15T10:10:19;4.10;;;2.70;;
50012;SDS011;35901;48.694;9.476;2024-02-15T10:12:46;4.27;;;3.03;;
50012;SDS011;35901;48.694;9.476;2024-02-15T10:15:34;4.13;;;3.00;;
50012;SDS011;35901;48.694;9.476;2024-02-15T10:18:02;6.07;;;2.83;;
50012;SDS011;35901;48.694;9.476;2024-02-15T10:20:29;5.90;;;3.30;;
50012;SDS011;35901;48.694;9.476;2024-02-15T10:25:25;4.47;;;2.70;;
50012;SDS011;35901;48.694;9.476;2024-02-15T10:27:53;4.80;;;2.70;;
50012;SDS011;35901;48.694;9.476;2024-02-15T10:30:34;6.60;;;2.80;;
50012;SDS011;35901;48.694;9.476;2024-02-15T10:33:00;5.63;;;2.70;;
50012;SDS011;35901;48.694;9.476;2024-02-15T10:35:27;4.03;;;2.20;;
50012;SDS011;35901;48.694;9.476;2024-02-15T10:37:58;2.33;;;1.90;;
50012;SDS011;35901;48.694;9.476;2024-02-15T10:40:36;3.90;;;1.83;;
50012;SDS011;35901;48.694;9.476;2024-02-15T10:43:03;2.97;;;1.97;;
50012;SDS011;35901;48.694;9.476;2024-02-15T10:45:32;3.47;;;1.63;;
50012;SDS011;35901;48.694;9.476;2024-02-15T10:48:01;3.37;;;1.60;;
50012;SDS011;35901;48.694;9.476;2024-02-15T10:50:30;2.90;;;1.70;;
50012;SDS011;35901;48.694;9.476;2024-02-15T10:52:56;2.20;;;1.50;;
50012;SDS011;35901;48.694;9.476;2024-02-15T10:55:58;2.03;;;1.50;;
50012;SDS011;35901;48.694;9.476;2024-02-15T10:58:21;3.40;;;1.77;;
50012;SDS011;35901;48.694;9.476;2024-02-15T11:00:54;2.77;;;1.70;;
50012;SDS011;35901;48.694;9.476;2024-02-15T11:03:25;2.23;;;1.60;;
50012;SDS011;35901;48.694;9.476;2024-02-15T11:05:56;1.70;;;1.50;;
50012;SDS011;35901;48.694;9.476;2024-02-15T11:08:25;1.43;;;1.30;;
50012;SDS011;35901;48.694;9.476;2024-02-15T11:10:52;1.93;;;1.40;;
50012;SDS011;35901;48.694;9.476;2024-02-15T11:13:23;1.80;;;1.30;;
50012;SDS011;35901;48.694;9.476;2024-02-15T11:19:57;3.20;;;1.53;;
50012;SDS011;35901;48.694;9.476;2024-02-15T11:22:01;3.30;;;1.50;;
50012;SDS011;35901;48.694;9.476;2024-02-15T11:24:34;2.30;;;1.23;;
50012;SDS011;35901;48.694;9.476;2024-02-15T11:27:04;3.60;;;1.60;;
50012;SDS011;35901;48.694;9.476;2024-02-15T11:35:21;3.73;;;1.47;;
50012;SDS011;35901;48.694;9.476;2024-02-15T11:40:15;2.13;;;1.20;;
50012;SDS011;35901;48.694;9.476;2024-02-15T11:42:42;2.57;;;1.30;;
50012;SDS011;35901;48.694;9.476;2024-02-15T11:45:11;1.07;;;1.03;;
50012;SDS011;35901;48.694;9.476;2024-02-15T11:47:38;1.90;;;1.43;;
50012;SDS011;35901;48.694;9.476;2024-02-15T11:50:08;1.43;;;1.10;;
50012;SDS011;35901;48.694;9.476;2024-02-15T11:52:46;2.00;;;1.43;;
50012;SDS011;35901;48.694;9.476;2024-02-15T11:55:14;2.43;;;1.23;;
50012;SDS011;35901;48.694;9.476;2024-02-15T11:57:59;1.40;;;1.17;;
50012;SDS011;35901;48.694;9.476;2024-02-15T12:00:29;2.70;;;1.30;;
50012;SDS011;35901;48.694;9.476;2024-02-15T12:03:15;2.33;;;1.50;;
50012;SDS011;35901;48.694;9.476;2024-02-15T12:06:00;1.73;;;1.40;;
50012;SDS011;35901;48.694;9.476;2024-02-15T12:08:46;2.67;;;1.20;;
50012;SDS011;35901;48.694;9.476;2024-02-15T12:11:31;1.77;;;1.30;;
50012;SDS011;35901;48.694;9.476;2024-02-15T12:14:16;2.47;;;1.50;;
50012;SDS011;35901;48.694;9.476;2024-02-15T12:19:47;1.93;;;1.20;;
50012;SDS011;35901;48.694;9.476;2024-02-15T12:22:32;1.97;;;1.20;;
50012;SDS011;35901;48.694;9.476;2024-02-15T12:25:01;1.80;;;1.20;;
50012;SDS011;35901;48.694;9.476;2024-02-15T12:27:55;1.93;;;1.37;;
50012;SDS011;35901;48.694;9.476;2024-02-15T12:30:21;2.70;;;1.50;;
50012;SDS011;35901;48.694;9.476;2024-02-15T12:32:53;1.97;;;1.30;;
50012;SDS011;35901;48.694;9.476;2024-02-15T12:35:35;2.03;;;1.30;;
50012;SDS011;35901;48.694;9.476;2024-02-15T12:40:30;2.60;;;1.10;;
50012;SDS011;35901;48.694;9.476;2024-02-15T12:42:57;2.87;;;1.40;;
50012;SDS011;35901;48.694;9.476;2024-02-15T12:45:25;1.67;;;1.30;;
50012;SDS011;35901;48.694;9.476;2024-02-15T12:48:05;1.43;;;1.30;;
50012;SDS011;35901;48.694;9.476;2024-02-15T12:50:32;4.23;;;1.23;;
50012;SDS011;35901;48.694;9.476;2024-02-15T12:52:59;2.47;;;1.37;;
50012;SDS011;35901;48.694;9.476;2024-02-15T12:55:30;2.93;;;1.30;;
50012;SDS011;35901;48.694;9.476;2024-02-15T12:58:06;1.40;;;1.13;;
50012;SDS011;35901;48.694;9.476;2024-02-15T13:00:38;3.67;;;1.30;;
50012;SDS011;35901;48.694;9.476;2024-02-15T13:03:06;1.30;;;1.10;;
50012;SDS011;35901;48.694;9.476;2024-02-15T13:05:36;2.93;;;1.20;;
50012;SDS011;35901;48.694;9.476;2024-02-15T13:08:02;1.77;;;1.10;;
50012;SDS011;35901;48.694;9.476;2024-02-15T13:10:35;2.20;;;1.20;;
50012;SDS011;35901;48.694;9.476;2024-02-15T13:13:01;2.10;;;1.17;;
50012;SDS011;35901;48.694;9.476;2024-02-15T13:15:26;1.80;;;1.30;;
50012;SDS011;35901;48.694;9.476;2024-02-15T13:17:57;1.67;;;1.27;;
50012;SDS011;35901;48.694;9.476;2024-02-15T13:23:20;1.93;;;1.30;;
50012;SDS011;35901;48.694;9.476;2024-02-15T13:25:50;3.50;;;1.37;;
50012;SDS011;35901;48.694;9.476;2024-02-15T13:28:21;2.47;;;1.33;;
50012;SDS011;35901;48.694;9.476;2024-02-15T13:30:48;2.63;;;1.50;;
50012;SDS011;35901;48.694;9.476;2024-02-15T13:33:14;2.23;;;1.13;;
50012;SDS011;35901;48.694;9.476;2024-02-15T13:35:41;2.30;;;1.20;;
50012;SDS011;35901;48.694;9.476;2024-02-15T13:38:07;2.83;;;1.20;;
50012;SDS011;35901;48.694;9.476;2024-02-15T13:40:39;1.30;;;1.17;;
50012;SDS011;35901;48.694;9.476;2024-02-15T13:43:07;3.00;;;1.30;;
50012;SDS011;35901;48.694;9.476;2024-02-15T13:48:09;1.30;;;1.20;;
50012;SDS011;35901;48.694;9.476;2024-02-15T13:50:38;2.40;;;1.40;;
50012;SDS011;35901;48.694;9.476;2024-02-15T13:53:04;3.03;;;1.53;;
50012;SDS011;35901;48.694;9.476;2024-02-15T13:55:30;1.83;;;1.50;;
50012;SDS011;35901;48.694;9.476;2024-02-15T13:57:56;1.60;;;1.50;;
50012;SDS011;35901;48.694;9.476;2024-02-15T14:00:22;1.97;;;1.50;;
50012;SDS011;35901;48.694;9.476;2024-02-15T14:02:55;2.60;;;1.30;;
50012;SDS011;35901;48.694;9.476;2024-02-15T14:05:23;3.57;;;1.60;;
50012;SDS011;35901;48.694;9.476;2024-02-15T14:07:51;1.40;;;1.30;;
50012;SDS011;35901;48.694;9.476;2024-02-15T14:10:20;3.87;;;1.43;;
50012;SDS011;35901;48.694;9.476;2024-02-15T14:12:47;1.90;;;1.30;;
50012;SDS011;35901;48.694;9.476;2024-02-15T14:15:14;2.63;;;1.50;;
50012;SDS011;35901;48.694;9.476;2024-02-15T14:17:42;2.33;;;1.60;;
50012;SDS011;35901;48.694;9.476;2024-02-15T14:20:09;2.07;;;1.60;;
50012;SDS011;35901;48.694;9.476;2024-02-15T14:26:30;1.60;;;1.50;;
50012;SDS011;35901;48.694;9.476;2024-02-15T14:28:56;2.53;;;1.90;;
50012;SDS011;35901;48.694;9.476;2024-02-15T14:31:22;2.80;;;1.60;;
50012;SDS011;35901;48.694;9.476;2024-02-15T14:34:06;2.93;;;1.80;;
50012;SDS011;35901;48.694;9.476;2024-02-15T14:36:31;4.00;;;1.70;;
50012;SDS011;35901;48.694;9.476;2024-02-15T14:38:57;2.50;;;1.80;;
50012;SDS011;35901;48.694;9.476;2024-02-15T14:41:23;1.83;;;1.60;;
50012;SDS011;35901;48.694;9.476;2024-02-15T14:43:48;4.23;;;1.60;;
50012;SDS011;35901;48.694;9.476;2024-02-15T14:46:15;3.13;;;2.10;;
50012;SDS011;35901;48.694;9.476;2024-02-15T14:48:41;1.93;;;1.70;;
50012;SDS011;35901;48.694;9.476;2024-02-15T14:51:08;2.23;;;1.70;;
50012;SDS011;35901;48.694;9.476;2024-02-15T14:53:34;3.73;;;2.07;;
50012;SDS011;35901;48.694;9.476;2024-02-15T14:56:00;3.27;;;1.90;;
50012;SDS011;35901;48.694;9.476;2024-02-15T14:58:29;2.73;;;1.90;;
50012;SDS011;35901;48.694;9.476;2024-02-15T15:00:55;3.50;;;1.80;;
50012;SDS011;35901;48.694;9.476;2024-02-15T15:03:21;3.27;;;1.87;;
50012;SDS011;35901;48.694;9.476;2024-02-15T15:05:50;3.53;;;1.90;;
50012;SDS011;35901;48.694;9.476;2024-02-15T15:08:45;1.80;;;1.60;;
50012;SDS011;35901;48.694;9.476;2024-02-15T15:11:29;2.27;;;1.77;;
50012;SDS011;35901;48.694;9.476;2024-02-15T15:14:14;3.10;;;1.90;;
50012;SDS011;35901;48.694;9.476;2024-02-15T15:16:39;2.20;;;1.90;;
50012;SDS011;35901;48.694;9.476;2024-02-15T15:19:05;2.73;;;1.70;;
50012;SDS011;35901;48.694;9.476;2024-02-15T15:21:30;2.30;;;1.90;;
50012;SDS011;35901;48.694;9.476;2024-02-15T15:23:57;2.20;;;1.70;;